Time;durP1;ratioP1;P1;durP2;ratioP2;P2;SDS_P1;SDS_P2;PMS_P1;PMS_P2;Temp;Humidity;BMP_temperature;BMP_pressure;BME280_temperature;BME280_humidity;BME280_pressure;Samples;Min_cycle;Max_cycle;Signal;HPM_P1;HPM_P2
2024/03/01 00:01:53;;;;;;;31.60;18.80;;;;;;;;;;5013094;28;20421;-81
2024/03/01 00:04:20;;;;;;;26.80;17.57;;;;;;;;;;5013031;28;20766;-81
2024/03/01 00:06:46;;;;;;;27.10;16.47;;;;;;;;;;5027924;28;20441;-83
2024/03/01 00:09:12;;;;;;;28.80;16.63;;;;;;;;;;5013054;28;20408;-81
2024/03/01 00:11:38;;;;;;;31.40;17.70;;;;;;;;;;5013119;28;20457;-81
2024/03/01 00:14:04;;;;;;;30.37;18.83;;;;;;;;;;5013111;28;20401;-82
2024/03/01 00:16:30;;;;;;;31.17;19.13;;;;;;;;;;5028144;28;20996;-81
2024/03/01 00:18:56;;;;;;;27.93;18.00;;;;;;;;;;5012912;28;20418;-81
2024/03/01 00:21:22;;;;;;;33.80;20.10;;;;;;;;;;5012959;28;20414;-82
2024/03/01 00:23:48;;;;;;;29.70;18.47;;;;;;;;;;5012621;28;20458;-81
2024/03/01 00:26:14;;;;;;;30.60;18.00;;;;;;;;;;5012904;28;20413;-81
2024/03/01 00:28:40;;;;;;;32.70;17.93;;;;;;;;;;5012957;28;20814;-82
2024/03/01 00:31:06;;;;;;;31.50;18.80;;;;;;;;;;5014520;28;20470;-84
2024/03/01 00:33:32;;;;;;;35.90;18.70;;;;;;;;;;5032030;28;20435;-83
2024/03/01 00:35:58;;;;;;;24.23;15.57;;;;;;;;;;5031923;28;20408;-85
2024/03/01 00:38:24;;;;;;;29.50;17.90;;;;;;;;;;5030136;28;20476;-83
2024/03/01 00:40:50;;;;;;;30.73;18.30;;;;;;;;;;5031784;28;20515;-83
2024/03/01 00:43:16;;;;;;;29.77;17.07;;;;;;;;;;5031826;28;20425;-83
2024/03/01 00:45:42;;;;;;;32.70;21.07;;;;;;;;;;5033060;28;20959;-84
2024/03/01 00:48:09;;;;;;;29.37;20.00;;;;;;;;;;5035618;28;20421;-82
2024/03/01 00:50:35;;;;;;;28.47;16.90;;;;;;;;;;5034303;28;20406;-83
2024/03/01 00:53:01;;;;;;;33.67;20.30;;;;;;;;;;5035157;28;20916;-83
2024/03/01 00:55:27;;;;;;;32.60;21.30;;;;;;;;;;5034168;28;20418;-84
2024/03/01 00:57:53;;;;;;;33.00;19.80;;;;;;;;;;5034530;28;20537;-82
2024/03/01 01:00:19;;;;;;;29.70;17.60;;;;;;;;;;5035333;28;20543;-84
2024/03/01 01:02:44;;;;;;;36.87;21.90;;;;;;;;;;5034483;28;20482;-83
2024/03/01 01:05:11;;;;;;;30.60;18.27;;;;;;;;;;5035734;28;20773;-81
2024/03/01 01:07:37;;;;;;;27.60;17.07;;;;;;;;;;5035554;28;20441;-80
2024/03/01 01:10:04;;;;;;;33.73;18.90;;;;;;;;;;5035838;28;20987;-83
2024/03/01 01:12:30;;;;;;;28.97;14.77;;;;;;;;;;5035776;28;20418;-80
2024/03/01 01:14:55;;;;;;;34.33;19.63;;;;;;;;;;5035679;28;20474;-82
2024/03/01 01:17:21;;;;;;;28.93;18.30;;;;;;;;;;5035494;28;20472;-81
2024/03/01 01:19:47;;;;;;;31.50;19.30;;;;;;;;;;5035203;28;20760;-84
2024/03/01 01:22:13;;;;;;;29.27;18.27;;;;;;;;;;5035345;28;20429;-81
2024/03/01 01:24:39;;;;;;;32.00;20.70;;;;;;;;;;5035519;28;20402;-83
2024/03/01 01:27:05;;;;;;;26.37;17.07;;;;;;;;;;5026026;28;20931;-81
2024/03/01 01:29:31;;;;;;;33.90;17.90;;;;;;;;;;5032517;28;20419;-81
2024/03/01 01:31:57;;;;;;;29.17;18.77;;;;;;;;;;5035375;28;20409;-80
2024/03/01 01:34:23;;;;;;;32.40;21.10;;;;;;;;;;5033938;28;20424;-81
2024/03/01 01:36:49;;;;;;;38.60;23.00;;;;;;;;;;5034722;28;20466;-80
2024/03/01 01:39:15;;;;;;;31.43;17.00;;;;;;;;;;5034262;28;20430;-81
2024/03/01 01:41:40;;;;;;;30.27;17.73;;;;;;;;;;5034426;28;20421;-81
2024/03/01 01:44:06;;;;;;;25.47;17.57;;;;;;;;;;5034809;28;20752;-78
2024/03/01 01:46:32;;;;;;;34.30;19.70;;;;;;;;;;5034685;28;20505;-78
2024/03/01 01:48:59;;;;;;;32.20;18.80;;;;;;;;;;5034867;28;20443;-78
2024/03/01 01:51:25;;;;;;;30.50;18.20;;;;;;;;;;5034489;28;20503;-78
2024/03/01 01:53:52;;;;;;;33.33;20.30;;;;;;;;;;5034733;28;20418;-79
2024/03/01 01:56:18;;;;;;;36.30;20.67;;;;;;;;;;5033852;28;20417;-78
2024/03/01 01:58:45;;;;;;;39.67;21.10;;;;;;;;;;5033438;28;20437;-79
2024/03/01 02:01:11;;;;;;;33.20;20.23;;;;;;;;;;5034568;28;21075;-78
2024/03/01 02:03:38;;;;;;;33.90;19.63;;;;;;;;;;5034590;28;20480;-78
2024/03/01 02:06:04;;;;;;;36.07;20.07;;;;;;;;;;5034473;28;20459;-80
2024/03/01 02:08:34;;;;;;;36.37;22.20;;;;;;;;;;5034139;28;20760;-79
2024/03/01 02:11:03;;;;;;;27.13;15.83;;;;;;;;;;5034422;28;20410;-79
2024/03/01 02:13:30;;;;;;;32.80;19.43;;;;;;;;;;5034335;28;20412;-79
2024/03/01 02:15:56;;;;;;;33.17;19.87;;;;;;;;;;5034269;28;20534;-79
2024/03/01 02:18:22;;;;;;;30.37;18.73;;;;;;;;;;5034013;28;20474;-79
2024/03/01 02:20:57;;;;;;;36.50;21.17;;;;;;;;;;5028075;28;20440;-81
2024/03/01 02:23:23;;;;;;;37.13;20.40;;;;;;;;;;5033545;28;20914;-81
2024/03/01 02:25:49;;;;;;;34.40;20.43;;;;;;;;;;5034028;28;20830;-80
2024/03/01 02:28:15;;;;;;;35.40;20.70;;;;;;;;;;5033918;28;20469;-80
2024/03/01 02:30:40;;;;;;;32.20;20.23;;;;;;;;;;5034103;28;20524;-81
2024/03/01 02:33:06;;;;;;;33.93;19.60;;;;;;;;;;5034043;28;21009;-80
2024/03/01 02:35:32;;;;;;;38.30;18.97;;;;;;;;;;5033938;28;20402;-80
2024/03/01 02:37:58;;;;;;;35.33;18.60;;;;;;;;;;5033440;28;20420;-80
2024/03/01 02:40:24;;;;;;;36.03;20.70;;;;;;;;;;5033708;28;20465;-80
2024/03/01 02:42:50;;;;;;;36.07;20.63;;;;;;;;;;5033793;28;20420;-80
2024/03/01 02:45:16;;;;;;;36.73;22.20;;;;;;;;;;5033732;28;20401;-80
2024/03/01 02:47:42;;;;;;;35.33;19.47;;;;;;;;;;5033626;28;20835;-79
2024/03/01 02:50:08;;;;;;;36.67;21.10;;;;;;;;;;5032456;28;20825;-80
2024/03/01 02:52:35;;;;;;;40.07;23.13;;;;;;;;;;5033317;28;20504;-80
2024/03/01 02:55:01;;;;;;;35.07;20.20;;;;;;;;;;5033475;28;20819;-80
2024/03/01 02:57:27;;;;;;;43.67;20.60;;;;;;;;;;5032355;28;20427;-80
2024/03/01 02:59:53;;;;;;;34.00;20.10;;;;;;;;;;5033462;28;20459;-80
2024/03/01 03:02:19;;;;;;;33.20;21.27;;;;;;;;;;5033334;28;20910;-80
2024/03/01 03:04:45;;;;;;;32.47;18.30;;;;;;;;;;5033368;28;20414;-80
2024/03/01 03:07:11;;;;;;;34.33;19.97;;;;;;;;;;5032698;28;20813;-82
2024/03/01 03:09:41;;;;;;;33.10;19.30;;;;;;;;;;5032413;28;20398;-81
2024/03/01 03:12:07;;;;;;;39.70;21.47;;;;;;;;;;5032409;28;20445;-81
2024/03/01 03:14:33;;;;;;;41.03;21.63;;;;;;;;;;5032976;28;20488;-81
2024/03/01 03:16:59;;;;;;;36.20;21.30;;;;;;;;;;5031865;28;20482;-82
2024/03/01 03:19:25;;;;;;;31.93;20.57;;;;;;;;;;5032931;28;20498;-81
2024/03/01 03:21:51;;;;;;;36.53;19.73;;;;;;;;;;5030367;28;20500;-81
2024/03/01 03:24:18;;;;;;;27.63;18.07;;;;;;;;;;5032845;28;20412;-80
2024/03/01 03:26:44;;;;;;;35.00;17.40;;;;;;;;;;5031855;28;20532;-81
2024/03/01 03:29:10;;;;;;;37.33;22.10;;;;;;;;;;5031842;28;20929;-79
2024/03/01 03:31:36;;;;;;;32.37;19.77;;;;;;;;;;5032808;28;20407;-80
2024/03/01 03:34:04;;;;;;;37.97;21.37;;;;;;;;;;5031554;28;20479;-80
2024/03/01 03:36:30;;;;;;;34.43;21.00;;;;;;;;;;5031244;28;21076;-80
2024/03/01 03:38:55;;;;;;;36.93;21.87;;;;;;;;;;5032700;28;20500;-80
2024/03/01 03:41:21;;;;;;;40.87;22.40;;;;;;;;;;5032520;28;20483;-81
2024/03/01 03:43:47;;;;;;;35.80;20.87;;;;;;;;;;5032712;28;20514;-81
2024/03/01 03:46:13;;;;;;;34.60;20.53;;;;;;;;;;5032476;28;20502;-82
2024/03/01 03:48:39;;;;;;;32.30;20.07;;;;;;;;;;5032626;28;20430;-80
2024/03/01 03:51:05;;;;;;;39.40;22.17;;;;;;;;;;5030990;28;20416;-80
2024/03/01 03:53:32;;;;;;;38.53;21.30;;;;;;;;;;5032549;28;20417;-81
2024/03/01 03:55:58;;;;;;;37.83;22.13;;;;;;;;;;5032627;28;20416;-80
2024/03/01 03:58:24;;;;;;;36.60;22.73;;;;;;;;;;5032524;28;20844;-80
2024/03/01 04:00:49;;;;;;;34.40;20.87;;;;;;;;;;5032430;28;20461;-81
2024/03/01 04:03:15;;;;;;;41.33;22.73;;;;;;;;;;5032444;28;20785;-81
2024/03/01 04:05:41;;;;;;;37.47;20.03;;;;;;;;;;5032388;28;20401;-80
2024/03/01 04:08:07;;;;;;;38.40;22.67;;;;;;;;;;5032050;28;20480;-81
2024/03/01 04:10:33;;;;;;;38.10;22.00;;;;;;;;;;5032380;28;20925;-81
2024/03/01 04:13:00;;;;;;;39.60;21.10;;;;;;;;;;5032418;28;20937;-80
2024/03/01 04:15:26;;;;;;;28.00;15.90;;;;;;;;;;5032366;28;20443;-80
2024/03/01 04:17:52;;;;;;;36.40;22.10;;;;;;;;;;5032282;28;20511;-80
2024/03/01 04:20:18;;;;;;;35.30;21.20;;;;;;;;;;5034447;28;20408;-81
2024/03/01 04:22:44;;;;;;;33.27;19.53;;;;;;;;;;5035931;28;20431;-80
2024/03/01 04:25:10;;;;;;;33.93;19.40;;;;;;;;;;5036281;28;20415;-82
2024/03/01 04:27:38;;;;;;;41.80;24.10;;;;;;;;;;5033492;28;20469;-81
2024/03/01 04:30:04;;;;;;;34.27;20.90;;;;;;;;;;5036168;28;20403;-80
2024/03/01 04:32:30;;;;;;;40.37;23.07;;;;;;;;;;5034794;28;20826;-81
2024/03/01 04:34:56;;;;;;;38.50;21.73;;;;;;;;;;5036126;28;20423;-80
2024/03/01 04:37:22;;;;;;;34.33;19.77;;;;;;;;;;5035704;28;20434;-80
2024/03/01 04:39:48;;;;;;;35.10;20.17;;;;;;;;;;5035647;28;20457;-80
2024/03/01 04:42:14;;;;;;;35.90;21.00;;;;;;;;;;5035907;28;20413;-79
2024/03/01 04:44:41;;;;;;;35.30;19.33;;;;;;;;;;5035852;28;20999;-80
2024/03/01 04:47:07;;;;;;;29.50;14.60;;;;;;;;;;5035759;28;20502;-81
2024/03/01 04:49:33;;;;;;;35.33;21.50;;;;;;;;;;5035836;28;20458;-79
2024/03/01 04:51:59;;;;;;;25.37;14.57;;;;;;;;;;5035352;28;20401;-79
2024/03/01 04:54:25;;;;;;;39.27;19.83;;;;;;;;;;5035766;28;20421;-78
2024/03/01 04:56:51;;;;;;;35.93;19.13;;;;;;;;;;5035672;28;20413;-80
2024/03/01 04:59:16;;;;;;;38.63;21.90;;;;;;;;;;5035555;28;20477;-81
2024/03/01 05:01:42;;;;;;;30.97;17.87;;;;;;;;;;5035560;28;20413;-79
2024/03/01 05:04:08;;;;;;;38.40;21.77;;;;;;;;;;5035458;28;20928;-79
2024/03/01 05:06:35;;;;;;;40.70;20.40;;;;;;;;;;5034902;28;20447;-79
2024/03/01 05:09:01;;;;;;;36.17;23.90;;;;;;;;;;5035512;28;20946;-82
2024/03/01 05:11:32;;;;;;;35.20;21.60;;;;;;;;;;5035435;28;20468;-79
2024/03/01 05:13:58;;;;;;;38.43;22.73;;;;;;;;;;5033048;28;20440;-80
2024/03/01 05:16:24;;;;;;;39.27;21.43;;;;;;;;;;5035433;28;20409;-80
2024/03/01 05:18:50;;;;;;;40.03;22.57;;;;;;;;;;5035321;28;20539;-81
2024/03/01 05:21:16;;;;;;;39.47;22.83;;;;;;;;;;5034872;28;20407;-80
2024/03/01 05:23:42;;;;;;;44.53;25.03;;;;;;;;;;5035203;28;20777;-81
2024/03/01 05:26:08;;;;;;;39.03;21.20;;;;;;;;;;5035115;28;20435;-81
2024/03/01 05:28:33;;;;;;;39.27;22.20;;;;;;;;;;5034970;28;20507;-82
2024/03/01 05:30:59;;;;;;;36.47;21.10;;;;;;;;;;5034470;28;20481;-80
2024/03/01 05:33:25;;;;;;;34.17;18.83;;;;;;;;;;5035013;28;20478;-80
2024/03/01 05:35:52;;;;;;;40.67;25.17;;;;;;;;;;5034551;28;20408;-79
2024/03/01 05:38:19;;;;;;;36.93;20.97;;;;;;;;;;5035017;28;20425;-80
2024/03/01 05:40:46;;;;;;;37.27;22.40;;;;;;;;;;5038374;28;20455;-79
2024/03/01 05:43:12;;;;;;;36.30;21.40;;;;;;;;;;5035933;28;20488;-81
2024/03/01 05:45:39;;;;;;;41.10;21.77;;;;;;;;;;5034843;28;20440;-81
2024/03/01 05:48:10;;;;;;;41.07;23.17;;;;;;;;;;5034622;28;20467;-80
2024/03/01 05:50:38;;;;;;;33.50;20.30;;;;;;;;;;5031882;28;20415;-79
2024/03/01 05:53:04;;;;;;;38.90;21.37;;;;;;;;;;5034655;28;20421;-81
2024/03/01 05:55:30;;;;;;;34.73;21.73;;;;;;;;;;5033333;28;20413;-81
2024/03/01 05:57:56;;;;;;;34.77;21.87;;;;;;;;;;5034636;28;20421;-80
2024/03/01 06:00:25;;;;;;;39.47;22.77;;;;;;;;;;5034538;28;20475;-80
2024/03/01 06:02:51;;;;;;;43.97;23.93;;;;;;;;;;5034521;28;20428;-80
2024/03/01 06:05:17;;;;;;;36.57;20.50;;;;;;;;;;5034341;28;20502;-80
2024/03/01 06:07:43;;;;;;;40.23;21.10;;;;;;;;;;5033987;28;20907;-80
2024/03/01 06:10:09;;;;;;;34.20;21.83;;;;;;;;;;5034293;28;20502;-80
2024/03/01 06:12:35;;;;;;;37.07;20.60;;;;;;;;;;5034015;28;20508;-80
2024/03/01 06:15:02;;;;;;;33.93;20.00;;;;;;;;;;5034239;28;20824;-80
2024/03/01 06:17:28;;;;;;;31.70;19.20;;;;;;;;;;5034143;28;20425;-80
2024/03/01 06:19:54;;;;;;;34.90;19.40;;;;;;;;;;5033952;28;20851;-80
2024/03/01 06:22:20;;;;;;;37.07;21.10;;;;;;;;;;5033750;28;20433;-80
2024/03/01 06:24:46;;;;;;;45.00;23.50;;;;;;;;;;5033968;28;20456;-80
2024/03/01 06:27:12;;;;;;;41.40;24.90;;;;;;;;;;5033832;28;20868;-81
2024/03/01 06:29:38;;;;;;;37.97;20.30;;;;;;;;;;5032659;28;20776;-81
2024/03/01 06:32:04;;;;;;;36.80;20.63;;;;;;;;;;5033837;28;20418;-81
2024/03/01 06:34:30;;;;;;;44.87;23.17;;;;;;;;;;5033779;28;20413;-80
2024/03/01 06:36:56;;;;;;;38.20;21.67;;;;;;;;;;5033350;28;20411;-81
2024/03/01 06:39:22;;;;;;;36.40;22.40;;;;;;;;;;5033477;28;20942;-81
2024/03/01 06:41:47;;;;;;;40.40;20.87;;;;;;;;;;5033729;28;20424;-81
2024/03/01 06:44:14;;;;;;;40.70;22.80;;;;;;;;;;5032597;28;20461;-82
2024/03/01 06:46:40;;;;;;;42.53;21.47;;;;;;;;;;5033527;28;20463;-81
2024/03/01 06:49:06;;;;;;;37.53;21.20;;;;;;;;;;5033563;28;20420;-80
2024/03/01 06:51:32;;;;;;;41.73;23.17;;;;;;;;;;5033135;28;20832;-82
2024/03/01 06:53:58;;;;;;;39.33;21.03;;;;;;;;;;5033486;28;20416;-80
2024/03/01 06:56:24;;;;;;;46.93;23.43;;;;;;;;;;5033480;28;20417;-81
2024/03/01 06:58:50;;;;;;;34.60;21.60;;;;;;;;;;5033369;28;20891;-80
2024/03/01 07:01:17;;;;;;;38.07;20.60;;;;;;;;;;5033284;28;20447;-81
2024/03/01 07:03:43;;;;;;;38.13;22.97;;;;;;;;;;5033352;28;20446;-80
2024/03/01 07:06:09;;;;;;;39.50;21.10;;;;;;;;;;5032924;28;20493;-79
2024/03/01 07:08:34;;;;;;;37.63;21.30;;;;;;;;;;5033064;28;21104;-80
2024/03/01 07:11:03;;;;;;;38.57;17.87;;;;;;;;;;5031930;28;20466;-81
2024/03/01 07:13:28;;;;;;;37.43;22.33;;;;;;;;;;5033185;28;20779;-80
2024/03/01 07:15:54;;;;;;;35.47;19.40;;;;;;;;;;5033006;28;20415;-79
2024/03/01 07:18:20;;;;;;;40.10;23.67;;;;;;;;;;5033039;28;20477;-79
2024/03/01 07:20:46;;;;;;;33.77;19.77;;;;;;;;;;5032671;28;20409;-80
2024/03/01 07:23:12;;;;;;;39.63;20.70;;;;;;;;;;5032886;28;20502;-80
2024/03/01 07:25:38;;;;;;;36.67;19.70;;;;;;;;;;5033158;28;20931;-80
2024/03/01 07:28:05;;;;;;;35.10;21.10;;;;;;;;;;5032622;28;20497;-79
2024/03/01 07:30:30;;;;;;;30.57;18.70;;;;;;;;;;5032621;28;20506;-80
2024/03/01 07:32:56;;;;;;;32.87;18.50;;;;;;;;;;5032627;28;20413;-79
2024/03/01 07:35:22;;;;;;;40.07;22.87;;;;;;;;;;5031995;28;20405;-80
2024/03/01 07:37:48;;;;;;;35.10;21.57;;;;;;;;;;5031871;28;20410;-79
2024/03/01 07:40:14;;;;;;;35.00;20.60;;;;;;;;;;5031739;28;20453;-80
2024/03/01 07:42:40;;;;;;;37.00;22.53;;;;;;;;;;5030367;28;20429;-80
2024/03/01 07:45:07;;;;;;;32.97;21.27;;;;;;;;;;5032237;28;20410;-80
2024/03/01 07:47:33;;;;;;;33.03;19.83;;;;;;;;;;5032266;28;21060;-80
2024/03/01 07:49:59;;;;;;;32.83;20.50;;;;;;;;;;5032451;28;20416;-81
2024/03/01 07:52:28;;;;;;;29.87;19.63;;;;;;;;;;5032026;28;20408;-80
2024/03/01 07:54:55;;;;;;;32.03;18.23;;;;;;;;;;5032033;28;20454;-80
2024/03/01 07:57:20;;;;;;;24.77;17.70;;;;;;;;;;5032494;28;20408;-81
2024/03/01 07:59:47;;;;;;;28.03;17.43;;;;;;;;;;5032470;28;20405;-81
2024/03/01 08:02:13;;;;;;;24.93;16.30;;;;;;;;;;5032384;28;20406;-80
2024/03/01 08:04:39;;;;;;;30.00;17.70;;;;;;;;;;5032521;28;20907;-81
2024/03/01 08:07:06;;;;;;;26.87;16.80;;;;;;;;;;5031990;28;20210;-81
2024/03/01 08:09:36;;;;;;;29.90;18.90;;;;;;;;;;5032315;28;20801;-81
2024/03/01 08:12:05;;;;;;;25.23;18.70;;;;;;;;;;5032531;28;20407;-80
2024/03/01 08:14:32;;;;;;;24.73;16.93;;;;;;;;;;5032278;28;20473;-82
2024/03/01 08:16:58;;;;;;;26.50;17.90;;;;;;;;;;5032730;28;20769;-81
2024/03/01 08:19:34;;;;;;;27.33;17.50;;;;;;;;;;5032642;28;20420;-81
2024/03/01 08:22:12;;;;;;;22.60;17.00;;;;;;;;;;5032597;28;20415;-82
2024/03/01 08:24:39;;;;;;;25.87;18.30;;;;;;;;;;5032773;28;20416;-82
2024/03/01 08:27:05;;;;;;;26.23;17.47;;;;;;;;;;5032560;28;20469;-82
2024/03/01 08:29:32;;;;;;;22.87;17.03;;;;;;;;;;5032701;28;20444;-81
2024/03/01 08:31:58;;;;;;;23.30;17.03;;;;;;;;;;5031631;28;20456;-82
2024/03/01 08:34:30;;;;;;;22.10;15.93;;;;;;;;;;5032719;28;20463;-82
2024/03/01 08:36:56;;;;;;;25.33;16.67;;;;;;;;;;5032284;28;20402;-81
2024/03/01 08:39:23;;;;;;;26.97;18.50;;;;;;;;;;5032424;28;20503;-81
2024/03/01 08:41:54;;;;;;;23.77;18.00;;;;;;;;;;5032501;28;20438;-81
2024/03/01 08:44:38;;;;;;;27.37;18.37;;;;;;;;;;5032608;28;20428;-81
2024/03/01 08:47:06;;;;;;;25.60;17.37;;;;;;;;;;5032361;28;20503;-81
2024/03/01 08:49:39;;;;;;;22.73;17.27;;;;;;;;;;5032539;28;20426;-80
2024/03/01 08:52:12;;;;;;;23.70;17.60;;;;;;;;;;5032115;28;20441;-81
2024/03/01 08:54:38;;;;;;;26.23;17.60;;;;;;;;;;5032495;28;20423;-81
2024/03/01 08:57:05;;;;;;;22.87;17.87;;;;;;;;;;5031334;28;20427;-81
2024/03/01 08:59:42;;;;;;;25.23;17.50;;;;;;;;;;5032469;28;20414;-81
2024/03/01 09:02:19;;;;;;;24.10;18.10;;;;;;;;;;5032480;28;20842;-80
2024/03/01 09:04:45;;;;;;;22.73;15.60;;;;;;;;;;5032511;28;20422;-80
2024/03/01 09:07:17;;;;;;;24.70;17.40;;;;;;;;;;5033795;28;20453;-82
2024/03/01 09:09:43;;;;;;;20.80;16.50;;;;;;;;;;5035915;28;20454;-83
2024/03/01 09:12:12;;;;;;;22.63;18.03;;;;;;;;;;5035985;28;20737;-81
2024/03/01 09:14:38;;;;;;;23.53;17.47;;;;;;;;;;5035833;28;20412;-81
2024/03/01 09:17:04;;;;;;;25.33;15.17;;;;;;;;;;5035773;28;20419;-81
2024/03/01 09:19:31;;;;;;;26.20;17.77;;;;;;;;;;5034443;28;20185;-80
2024/03/01 09:21:57;;;;;;;23.00;17.90;;;;;;;;;;5035078;28;20836;-80
2024/03/01 09:24:24;;;;;;;24.67;17.10;;;;;;;;;;5035608;28;20424;-78
2024/03/01 09:26:50;;;;;;;23.10;16.60;;;;;;;;;;5035427;28;20486;-79
2024/03/01 09:29:23;;;;;;;25.30;18.20;;;;;;;;;;5035544;28;20405;-78
2024/03/01 09:31:49;;;;;;;22.97;18.90;;;;;;;;;;5035481;28;20416;-79
2024/03/01 09:34:17;;;;;;;22.13;16.70;;;;;;;;;;5034368;28;20481;-79
2024/03/01 09:36:43;;;;;;;21.57;17.60;;;;;;;;;;5033596;28;20929;-82
2024/03/01 09:39:11;;;;;;;21.70;16.60;;;;;;;;;;5035031;28;20409;-82
2024/03/01 09:41:44;;;;;;;24.27;18.43;;;;;;;;;;5035421;28;20453;-80
2024/03/01 09:44:29;;;;;;;25.73;18.70;;;;;;;;;;5035284;28;20909;-80
2024/03/01 09:47:13;;;;;;;23.03;17.10;;;;;;;;;;5035252;28;20461;-81
2024/03/01 09:49:55;;;;;;;19.67;16.40;;;;;;;;;;5035295;28;20500;-80
2024/03/01 09:52:30;;;;;;;20.50;14.90;;;;;;;;;;5033753;28;20458;-80
2024/03/01 09:55:13;;;;;;;24.30;17.30;;;;;;;;;;5035038;28;20416;-81
2024/03/01 09:57:52;;;;;;;21.87;17.67;;;;;;;;;;5035003;28;20418;-80
2024/03/01 10:00:22;;;;;;;22.00;15.70;;;;;;;;;;5034989;28;20400;-81
2024/03/01 10:02:54;;;;;;;19.50;16.67;;;;;;;;;;5034867;28;20513;-81
2024/03/01 10:05:30;;;;;;;24.43;17.47;;;;;;;;;;5034375;28;20405;-81
2024/03/01 10:08:08;;;;;;;20.93;16.50;;;;;;;;;;5034917;28;20468;-81
2024/03/01 10:10:36;;;;;;;22.67;17.13;;;;;;;;;;5034784;28;20432;-81
2024/03/01 10:13:02;;;;;;;21.20;16.50;;;;;;;;;;5034912;28;20422;-81
2024/03/01 10:15:30;;;;;;;20.63;17.10;;;;;;;;;;5034688;28;20420;-81
2024/03/01 10:18:21;;;;;;;23.07;18.23;;;;;;;;;;5033986;28;20185;-81
2024/03/01 10:21:03;;;;;;;21.20;15.30;;;;;;;;;;5034341;28;20803;-81
2024/03/01 10:23:39;;;;;;;23.70;17.17;;;;;;;;;;5033327;28;20429;-81
2024/03/01 10:26:24;;;;;;;18.13;15.77;;;;;;;;;;5034387;28;20909;-81
2024/03/01 10:28:50;;;;;;;21.07;15.77;;;;;;;;;;5028067;28;20439;-81
2024/03/01 10:31:22;;;;;;;17.67;15.73;;;;;;;;;;5013024;28;20421;-81
2024/03/01 10:33:53;;;;;;;21.37;17.47;;;;;;;;;;5014292;28;20177;-81
2024/03/01 10:36:34;;;;;;;22.27;17.53;;;;;;;;;;5013852;28;20420;-82
2024/03/01 10:39:04;;;;;;;21.47;18.00;;;;;;;;;;5014089;28;20432;-82
2024/03/01 10:41:29;;;;;;;19.60;16.83;;;;;;;;;;5014215;28;20505;-82
2024/03/01 10:44:04;;;;;;;20.87;18.00;;;;;;;;;;5012700;28;20512;-82
2024/03/01 10:46:37;;;;;;;18.13;15.73;;;;;;;;;;5022699;28;20193;-81
2024/03/01 10:49:13;;;;;;;19.07;15.27;;;;;;;;;;5014942;28;20782;-80
2024/03/01 10:51:42;;;;;;;20.80;17.27;;;;;;;;;;5013484;28;20493;-80
2024/03/01 10:54:10;;;;;;;18.97;15.97;;;;;;;;;;5013134;28;20500;-81
2024/03/01 10:56:36;;;;;;;20.13;16.60;;;;;;;;;;5013482;28;20414;-81
2024/03/01 10:59:10;;;;;;;20.97;16.87;;;;;;;;;;5013411;28;20921;-81
2024/03/01 11:01:52;;;;;;;21.27;15.40;;;;;;;;;;5013408;28;20802;-81
2024/03/01 11:04:18;;;;;;;22.67;14.63;;;;;;;;;;5013081;28;20414;-81
2024/03/01 11:06:58;;;;;;;20.87;14.80;;;;;;;;;;5012887;28;20992;-82
2024/03/01 11:09:24;;;;;;;18.60;14.00;;;;;;;;;;5026396;28;20197;-81
2024/03/01 11:12:02;;;;;;;19.50;15.30;;;;;;;;;;5032932;28;20855;-82
2024/03/01 11:14:32;;;;;;;17.53;13.60;;;;;;;;;;5032845;28;20182;-81
2024/03/01 11:16:58;;;;;;;16.23;13.90;;;;;;;;;;5033361;28;20907;-82
2024/03/01 11:19:26;;;;;;;15.67;12.07;;;;;;;;;;5031668;28;20436;-81
2024/03/01 11:21:58;;;;;;;17.53;13.70;;;;;;;;;;5032868;28;20424;-82
2024/03/01 11:24:29;;;;;;;15.30;12.80;;;;;;;;;;5033177;28;21015;-82
2024/03/01 11:26:56;;;;;;;15.10;13.13;;;;;;;;;;5033030;28;20551;-82
2024/03/01 11:29:43;;;;;;;16.20;13.33;;;;;;;;;;5032439;28;20408;-82
2024/03/01 11:32:18;;;;;;;17.17;13.83;;;;;;;;;;5033043;28;20401;-82
2024/03/01 11:35:04;;;;;;;18.00;14.00;;;;;;;;;;5032508;28;20412;-82
2024/03/01 11:37:40;;;;;;;14.23;12.10;;;;;;;;;;5031235;28;20428;-82
2024/03/01 11:40:38;;;;;;;16.53;12.63;;;;;;;;;;5032692;28;20464;-81
2024/03/01 11:43:17;;;;;;;16.60;12.50;;;;;;;;;;5010197;28;20460;-82
2024/03/01 11:46:10;;;;;;;17.80;11.93;;;;;;;;;;5032718;28;20461;-80
2024/03/01 11:48:48;;;;;;;15.17;12.63;;;;;;;;;;5030897;28;20520;-82
2024/03/01 11:51:32;;;;;;;15.33;10.93;;;;;;;;;;5032317;28;20441;-82
2024/03/01 11:53:58;;;;;;;17.07;11.30;;;;;;;;;;5030932;28;20416;-81
2024/03/01 11:56:36;;;;;;;15.43;11.83;;;;;;;;;;5032535;28;20420;-82
2024/03/01 11:59:12;;;;;;;18.67;11.40;;;;;;;;;;5032849;28;20645;-83
2024/03/01 12:01:48;;;;;;;18.53;11.60;;;;;;;;;;5032503;28;20404;-80
2024/03/01 12:04:24;;;;;;;12.90;9.40;;;;;;;;;;5032585;28;20450;-82
2024/03/01 12:06:51;;;;;;;16.33;10.87;;;;;;;;;;5032467;28;20977;-83
2024/03/01 12:09:31;;;;;;;15.27;9.40;;;;;;;;;;5032635;28;20774;-81
2024/03/01 12:12:15;;;;;;;14.27;8.40;;;;;;;;;;5032459;28;20417;-81
2024/03/01 12:14:44;;;;;;;15.17;10.10;;;;;;;;;;5032519;28;20406;-81
2024/03/01 12:17:14;;;;;;;13.77;9.20;;;;;;;;;;5031982;28;20471;-80
2024/03/01 12:19:43;;;;;;;11.43;6.87;;;;;;;;;;5031753;28;20832;-82
2024/03/01 12:22:22;;;;;;;11.37;8.37;;;;;;;;;;5032420;28;20421;-81
2024/03/01 12:24:49;;;;;;;11.67;8.73;;;;;;;;;;5032306;28;20438;-82
2024/03/01 12:27:17;;;;;;;13.37;8.33;;;;;;;;;;5032378;28;20502;-81
2024/03/01 12:30:03;;;;;;;12.83;8.70;;;;;;;;;;5032331;28;20423;-81
2024/03/01 12:32:48;;;;;;;11.70;8.73;;;;;;;;;;5030923;28;20783;-82
2024/03/01 12:35:25;;;;;;;11.80;7.77;;;;;;;;;;5030590;28;20417;-82
2024/03/01 12:38:02;;;;;;;10.93;7.50;;;;;;;;;;5032075;28;20964;-81
2024/03/01 12:40:30;;;;;;;14.40;9.80;;;;;;;;;;5031795;28;20467;-82
2024/03/01 12:43:02;;;;;;;14.43;8.37;;;;;;;;;;5035011;28;20913;-81
2024/03/01 12:45:34;;;;;;;13.93;9.07;;;;;;;;;;5034973;28;20401;-81
2024/03/01 12:48:20;;;;;;;15.03;8.80;;;;;;;;;;5036083;28;20519;-81
2024/03/01 12:50:46;;;;;;;11.87;9.00;;;;;;;;;;5035207;28;20425;-81
2024/03/01 12:53:31;;;;;;;12.90;8.80;;;;;;;;;;5034688;28;20434;-81
2024/03/01 12:56:05;;;;;;;10.90;9.10;;;;;;;;;;5035564;28;20172;-81
2024/03/01 12:58:38;;;;;;;12.37;8.40;;;;;;;;;;5035493;28;20476;-81
2024/03/01 13:01:21;;;;;;;11.17;8.30;;;;;;;;;;5035708;28;20863;-82
2024/03/01 13:03:55;;;;;;;12.87;9.50;;;;;;;;;;5050213;22;20893;-80
2024/03/01 13:06:22;;;;;;;12.17;9.30;;;;;;;;;;5035097;28;20403;-80
2024/03/01 13:08:54;;;;;;;11.20;7.97;;;;;;;;;;5034773;28;20792;-83
2024/03/01 13:11:24;;;;;;;13.63;8.87;;;;;;;;;;5035412;28;20418;-84
2024/03/01 13:14:02;;;;;;;13.93;9.97;;;;;;;;;;5035513;28;20761;-82
2024/03/01 13:16:31;;;;;;;13.07;8.93;;;;;;;;;;5035485;28;20768;-82
2024/03/01 13:19:17;;;;;;;14.33;10.40;;;;;;;;;;5035235;28;20451;-84
2024/03/01 13:21:48;;;;;;;11.13;8.40;;;;;;;;;;5035222;28;20405;-84
2024/03/01 13:24:30;;;;;;;13.80;10.60;;;;;;;;;;5034859;28;20951;-87
2024/03/01 13:27:06;;;;;;;14.63;10.10;;;;;;;;;;5035861;28;20527;-87
2024/03/01 13:29:34;;;;;;;16.47;12.07;;;;;;;;;;5035809;28;20415;-86
2024/03/01 13:32:08;;;;;;;13.83;9.37;;;;;;;;;;5035455;28;20430;-85
2024/03/01 13:34:36;;;;;;;12.07;8.40;;;;;;;;;;5034414;28;20445;-83
2024/03/01 13:37:12;;;;;;;12.80;8.50;;;;;;;;;;5035377;28;20472;-85
2024/03/01 13:39:56;;;;;;;12.20;8.70;;;;;;;;;;5033881;28;20507;-85
2024/03/01 13:42:28;;;;;;;11.03;9.00;;;;;;;;;;5035295;28;20408;-84
2024/03/01 13:44:55;;;;;;;12.47;7.47;;;;;;;;;;5033599;28;20433;-86
2024/03/01 13:47:26;;;;;;;12.00;8.73;;;;;;;;;;5035175;28;20492;-82
2024/03/01 13:50:06;;;;;;;12.83;8.37;;;;;;;;;;5034858;28;20434;-84
2024/03/01 13:52:34;;;;;;;13.97;9.70;;;;;;;;;;5034634;28;20889;-86
2024/03/01 13:55:04;;;;;;;12.80;8.67;;;;;;;;;;5033825;28;20454;-85
2024/03/01 13:58:05;;;;;;;14.80;9.70;;;;;;;;;;5035181;28;20471;-86
2024/03/01 14:00:28;;;;;;;11.97;8.20;;;;;;;;;;5032008;28;20511;-83
2024/03/01 14:02:55;;;;;;;13.30;8.07;;;;;;;;;;5034102;28;21048;-84
2024/03/01 14:05:26;;;;;;;14.20;8.80;;;;;;;;;;5034025;28;20782;-82
2024/03/01 14:07:52;;;;;;;11.50;8.40;;;;;;;;;;5034287;28;20984;-83
2024/03/01 14:10:19;;;;;;;12.60;8.93;;;;;;;;;;5033477;28;20427;-83
2024/03/01 14:12:45;;;;;;;12.70;9.07;;;;;;;;;;5029672;28;20418;-82
2024/03/01 14:15:11;;;;;;;12.20;8.80;;;;;;;;;;5033140;28;20918;-84
2024/03/01 14:17:42;;;;;;;16.23;8.67;;;;;;;;;;5033822;28;20471;-84
2024/03/01 14:20:11;;;;;;;11.87;8.40;;;;;;;;;;5033566;28;20838;-84
2024/03/01 14:22:41;;;;;;;10.50;8.73;;;;;;;;;;5033234;28;20850;-83
2024/03/01 14:25:11;;;;;;;12.97;8.60;;;;;;;;;;5032501;28;20909;-84
2024/03/01 14:27:44;;;;;;;14.30;8.93;;;;;;;;;;5033130;28;20951;-83
2024/03/01 14:30:16;;;;;;;12.50;8.53;;;;;;;;;;5034027;28;20498;-83